MORAN71 EGVA-EGVA

Flight info

Callsign MORAN71
Flight time 2h 1m
Altitude 22000
Route EGVA
Aircraft B1/H-SDGRY/LB1

Departure

Time 2026-04-24 21:00
Airport RAF Fairford (EGVA)

Arrival

Time 2026-04-24 23:02
Airport RAF Fairford (EGVA)
Time Latitude Longitude Altitude Speed Heading
2026-04-24 20:51 51.67997 -1.78602 283 ft 0 kts 261°
2026-04-24 20:54 51.68005 -1.78644 283 ft 7 kts 302°
2026-04-24 20:55 51.68049 -1.78709 283 ft 10 kts 318°
2026-04-24 20:55 51.68068 -1.78799 284 ft 8 kts 270°
2026-04-24 20:55 51.68066 -1.78892 284 ft 9 kts 268°
2026-04-24 20:55 51.68063 -1.79030 285 ft 15 kts 268°
2026-04-24 20:56 51.68059 -1.79203 286 ft 15 kts 268°
2026-04-24 20:56 51.68056 -1.79358 287 ft 14 kts 268°
2026-04-24 20:56 51.68053 -1.79519 288 ft 17 kts 268°
2026-04-24 20:56 51.68047 -1.79780 290 ft 26 kts 269°
2026-04-24 20:57 51.68041 -1.80062 295 ft 24 kts 268°
2026-04-24 20:57 51.68035 -1.80324 293 ft 23 kts 268°
2026-04-24 20:57 51.68032 -1.80565 297 ft 20 kts 280°
2026-04-24 20:57 51.68084 -1.80761 301 ft 18 kts 296°
2026-04-24 20:58 51.68137 -1.80934 300 ft 16 kts 296°
2026-04-24 20:58 51.68184 -1.81088 300 ft 14 kts 298°
2026-04-24 20:58 51.68251 -1.81174 299 ft 11 kts 355°
2026-04-24 20:58 51.68303 -1.81131 301 ft 7 kts 68°
2026-04-24 20:59 51.68307 -1.81086 302 ft 0 kts 88°
2026-04-24 21:00 51.68310 -1.80967 298 ft 46 kts 88°
2026-04-24 21:00 51.68329 -1.79956 294 ft 135 kts 88°
2026-04-24 21:00 51.68372 -1.78039 420 ft 200 kts 88°
2026-04-24 21:00 51.68421 -1.75563 907 ft 235 kts 88°
2026-04-24 21:01 51.68475 -1.72960 1470 ft 240 kts 89°
2026-04-24 21:01 51.68842 -1.70221 1762 ft 257 kts 64°
2026-04-24 21:01 51.70145 -1.68296 1892 ft 261 kts 25°
2026-04-24 21:01 51.71945 -1.68093 2014 ft 267 kts 347°
2026-04-24 21:02 51.73488 -1.69691 2228 ft 268 kts 309°
2026-04-24 21:02 51.74143 -1.72417 2614 ft 256 kts 269°
2026-04-24 21:02 51.73644 -1.75014 3439 ft 243 kts 230°
2026-04-24 21:02 51.72383 -1.76928 4228 ft 256 kts 216°
2026-04-24 21:03 51.70895 -1.78559 5028 ft 261 kts 200°
2026-04-24 21:03 51.69128 -1.79285 5813 ft 266 kts 186°
2026-04-24 21:03 51.67286 -1.79873 6555 ft 273 kts 189°
2026-04-24 21:03 51.65413 -1.80485 7287 ft 276 kts 188°
2026-04-24 21:04 51.63517 -1.81067 8024 ft 280 kts 188°
2026-04-24 21:04 51.61593 -1.81633 8765 ft 283 kts 188°
2026-04-24 21:04 51.59644 -1.82192 9527 ft 286 kts 188°
2026-04-24 21:04 51.57670 -1.82748 10292 ft 290 kts 188°
2026-04-24 21:05 51.55670 -1.83304 11018 ft 293 kts 188°
2026-04-24 21:05 51.53656 -1.83859 11744 ft 294 kts 188°
2026-04-24 21:05 51.51633 -1.84412 12508 ft 295 kts 188°
2026-04-24 21:05 51.49608 -1.84966 13282 ft 296 kts 189°
2026-04-24 21:06 51.47592 -1.85657 14028 ft 298 kts 198°
2026-04-24 21:06 51.45908 -1.87588 14662 ft 304 kts 229°
2026-04-24 21:06 51.44709 -1.90388 15406 ft 306 kts 239°
2026-04-24 21:06 51.43696 -1.93378 16139 ft 306 kts 243°
2026-04-24 21:07 51.42860 -1.96512 16899 ft 305 kts 251°
2026-04-24 21:07 51.42131 -1.99714 17682 ft 307 kts 250°
2026-04-24 21:07 51.41399 -2.02932 18486 ft 308 kts 251°
2026-04-24 21:07 51.40678 -2.06174 19186 ft 310 kts 251°
2026-04-24 21:08 51.39968 -2.09434 19919 ft 311 kts 252°
2026-04-24 21:08 51.39262 -2.12706 20653 ft 311 kts 252°
2026-04-24 21:08 51.38562 -2.15989 21401 ft 312 kts 252°
2026-04-24 21:08 51.37851 -2.19334 21864 ft 324 kts 252°
2026-04-24 21:09 51.37111 -2.22847 22072 ft 343 kts 252°
2026-04-24 21:09 51.36367 -2.26358 22144 ft 319 kts 252°
2026-04-24 21:09 51.35635 -2.29777 22195 ft 332 kts 252°
2026-04-24 21:09 51.34894 -2.33244 22209 ft 325 kts 252°
2026-04-24 21:10 51.34159 -2.36711 22230 ft 332 kts 252°
2026-04-24 21:10 51.33362 -2.40136 22230 ft 328 kts 249°
2026-04-24 21:10 51.32505 -2.43491 22234 ft 332 kts 249°
2026-04-24 21:10 51.31628 -2.46866 22230 ft 328 kts 248°
2026-04-24 21:11 51.30730 -2.50255 22238 ft 331 kts 248°
2026-04-24 21:11 51.29823 -2.53616 22235 ft 329 kts 247°
2026-04-24 21:11 51.28905 -2.56985 22233 ft 331 kts 247°
2026-04-24 21:11 51.27982 -2.60332 22238 ft 329 kts 247°
2026-04-24 21:12 51.27050 -2.63693 22238 ft 331 kts 246°
2026-04-24 21:12 51.26117 -2.67029 22232 ft 329 kts 246°
2026-04-24 21:12 51.25176 -2.70394 22237 ft 332 kts 246°
2026-04-24 21:12 51.24244 -2.73743 22239 ft 330 kts 246°
2026-04-24 21:13 51.23305 -2.77109 22237 ft 332 kts 246°
2026-04-24 21:13 51.22364 -2.80450 22233 ft 330 kts 246°
2026-04-24 21:13 51.21408 -2.83796 22230 ft 333 kts 246°
2026-04-24 21:13 51.20445 -2.87136 22232 ft 330 kts 245°
2026-04-24 21:14 51.19476 -2.90474 22228 ft 333 kts 245°
2026-04-24 21:14 51.18510 -2.93804 22229 ft 330 kts 245°
2026-04-24 21:14 51.17543 -2.97150 22225 ft 333 kts 245°
2026-04-24 21:14 51.16585 -3.00488 22223 ft 330 kts 245°
2026-04-24 21:15 51.15627 -3.03840 22228 ft 334 kts 245°
2026-04-24 21:15 51.14674 -3.07181 22223 ft 330 kts 245°
2026-04-24 21:15 51.13716 -3.10536 22226 ft 334 kts 245°
2026-04-24 21:15 51.12757 -3.13873 22225 ft 331 kts 245°
2026-04-24 21:16 51.11800 -3.17178 22225 ft 334 kts 245°
2026-04-24 21:16 51.10832 -3.20506 22226 ft 331 kts 245°
2026-04-24 21:16 51.09852 -3.23858 22229 ft 334 kts 245°
2026-04-24 21:16 51.08878 -3.27191 22229 ft 332 kts 245°
2026-04-24 21:17 51.07903 -3.30537 22228 ft 334 kts 245°
2026-04-24 21:17 51.06921 -3.33863 22227 ft 332 kts 245°
2026-04-24 21:17 51.05956 -3.37228 22230 ft 334 kts 245°
2026-04-24 21:17 51.05322 -3.39436 22225 ft 331 kts 245°
2026-04-24 21:18 51.04034 -3.43929 22233 ft 334 kts 245°
2026-04-24 21:18 51.03076 -3.47270 22230 ft 333 kts 245°
2026-04-24 21:18 51.02116 -3.50632 22228 ft 334 kts 245°
2026-04-24 21:18 51.01160 -3.53978 22232 ft 333 kts 245°
2026-04-24 21:19 51.00199 -3.57342 22231 ft 334 kts 245°
2026-04-24 21:19 50.99238 -3.60694 22228 ft 333 kts 244°
2026-04-24 21:19 50.98269 -3.64059 22230 ft 335 kts 244°
2026-04-24 21:19 50.97306 -3.67393 22229 ft 333 kts 244°
2026-04-24 21:20 50.95374 -3.74052 22234 ft 334 kts 244°
2026-04-24 21:20 50.94397 -3.77411 22231 ft 335 kts 244°
2026-04-24 21:20 50.93427 -3.80757 22229 ft 334 kts 244°
2026-04-24 21:21 50.92453 -3.84113 22233 ft 334 kts 244°
2026-04-24 21:21 50.91485 -3.87451 22231 ft 334 kts 244°
2026-04-24 21:21 50.90510 -3.90808 22229 ft 334 kts 244°
2026-04-24 21:21 50.89540 -3.94139 22230 ft 335 kts 244°
2026-04-24 21:22 50.88560 -3.97494 22222 ft 334 kts 244°
2026-04-24 21:22 50.87586 -4.00821 22224 ft 335 kts 243°
2026-04-24 21:22 50.86601 -4.04173 22220 ft 334 kts 243°
2026-04-24 21:22 50.85957 -4.06369 22222 ft 333 kts 243°
2026-04-24 21:23 50.84639 -4.10844 22226 ft 333 kts 243°
2026-04-24 21:23 50.83662 -4.14168 22223 ft 335 kts 243°
2026-04-24 21:23 50.82678 -4.17511 22219 ft 333 kts 243°
2026-04-24 21:23 50.81700 -4.20832 22217 ft 335 kts 243°
2026-04-24 21:24 50.80713 -4.24176 22218 ft 333 kts 243°
2026-04-24 21:24 50.79732 -4.27495 22214 ft 335 kts 243°
2026-04-24 21:24 50.78743 -4.30835 22208 ft 333 kts 243°
2026-04-24 21:24 50.77760 -4.34147 22211 ft 335 kts 243°
2026-04-24 21:25 50.76781 -4.37438 22215 ft 333 kts 243°
2026-04-24 21:25 50.75782 -4.40795 22211 ft 335 kts 243°
2026-04-24 21:25 50.74801 -4.44080 22212 ft 333 kts 243°
2026-04-24 21:25 50.73817 -4.47383 22206 ft 335 kts 242°
2026-04-24 21:26 50.72824 -4.50707 22199 ft 333 kts 242°
2026-04-24 21:26 50.71836 -4.54016 22210 ft 335 kts 242°
2026-04-24 21:26 50.70840 -4.57342 22198 ft 333 kts 242°
2026-04-24 21:26 50.69850 -4.60647 22211 ft 335 kts 242°
2026-04-24 21:27 50.68854 -4.63965 22203 ft 333 kts 242°
2026-04-24 21:27 50.67861 -4.67266 22191 ft 335 kts 242°
2026-04-24 21:27 50.66864 -4.70578 22206 ft 332 kts 242°
2026-04-24 21:27 50.66205 -4.72760 22204 ft 335 kts 242°
2026-04-24 21:28 50.64869 -4.77182 22192 ft 332 kts 242°
2026-04-24 21:28 50.63867 -4.80492 22193 ft 336 kts 242°
2026-04-24 21:28 50.62868 -4.83795 22193 ft 332 kts 242°
2026-04-24 21:28 50.61866 -4.87097 22190 ft 336 kts 242°
2026-04-24 21:29 50.60865 -4.90400 22183 ft 333 kts 242°
2026-04-24 21:29 50.59861 -4.93701 22189 ft 336 kts 242°
2026-04-24 21:29 50.58858 -4.97000 22186 ft 332 kts 242°
2026-04-24 21:29 50.57852 -5.00297 22184 ft 336 kts 241°
2026-04-24 21:30 50.56846 -5.03595 22208 ft 332 kts 241°
2026-04-24 21:30 50.55850 -5.06845 22207 ft 336 kts 241°
2026-04-24 21:30 50.54843 -5.10139 22205 ft 332 kts 241°
2026-04-24 21:30 50.53833 -5.13430 22211 ft 336 kts 241°
2026-04-24 21:31 50.52824 -5.16723 22205 ft 332 kts 241°
2026-04-24 21:31 50.51815 -5.20005 22205 ft 336 kts 241°
2026-04-24 21:31 50.50803 -5.23297 22207 ft 332 kts 241°
2026-04-24 21:31 50.49790 -5.26581 22205 ft 336 kts 241°
2026-04-24 21:32 50.48777 -5.29868 22205 ft 332 kts 241°
2026-04-24 21:32 50.47762 -5.33150 22204 ft 337 kts 240°
2026-04-24 21:32 50.46744 -5.36443 22200 ft 333 kts 240°
2026-04-24 21:32 50.45727 -5.39721 22194 ft 336 kts 240°
2026-04-24 21:33 50.44708 -5.43007 22195 ft 333 kts 240°
2026-04-24 21:33 50.44022 -5.45216 22194 ft 335 kts 240°
2026-04-24 21:33 50.42669 -5.49568 22191 ft 333 kts 240°
2026-04-24 21:33 50.41647 -5.52846 22189 ft 337 kts 240°
2026-04-24 21:34 50.40626 -5.56125 22183 ft 333 kts 240°
2026-04-24 21:34 50.39599 -5.59409 22182 ft 337 kts 240°
2026-04-24 21:34 50.38576 -5.62685 22182 ft 333 kts 240°
2026-04-24 21:34 50.37547 -5.65965 22183 ft 336 kts 240°
2026-04-24 21:35 50.36526 -5.69227 22183 ft 333 kts 240°
2026-04-24 21:35 50.35494 -5.72508 22183 ft 336 kts 240°
2026-04-24 21:35 50.34471 -5.75768 22181 ft 334 kts 240°
2026-04-24 21:35 50.33438 -5.79043 22181 ft 335 kts 240°
2026-04-24 21:36 50.32760 -5.81200 22179 ft 332 kts 240°
2026-04-24 21:36 50.31730 -5.84460 22181 ft 336 kts 239°
2026-04-24 21:36 50.30704 -5.87715 22179 ft 332 kts 239°
2026-04-24 21:36 50.29669 -5.90980 22177 ft 336 kts 239°
2026-04-24 21:37 50.28604 -5.94192 22164 ft 329 kts 234°
2026-04-24 21:37 50.26952 -5.96592 22153 ft 325 kts 205°
2026-04-24 21:37 50.24800 -5.97290 22171 ft 319 kts 176°
2026-04-24 21:37 50.22664 -5.96271 22194 ft 324 kts 157°
2026-04-24 21:38 50.20586 -5.94933 22183 ft 322 kts 159°
2026-04-24 21:38 50.18502 -5.93636 22183 ft 323 kts 159°
2026-04-24 21:38 50.16415 -5.92322 22177 ft 323 kts 159°
2026-04-24 21:38 50.14355 -5.90933 22171 ft 323 kts 153°
2026-04-24 21:39 50.12724 -5.88472 22183 ft 336 kts 124°
2026-04-24 21:39 50.12093 -5.84961 22208 ft 348 kts 95°
2026-04-24 21:39 50.12636 -5.81233 22233 ft 361 kts 68°
2026-04-24 21:39 50.13868 -5.77813 22206 ft 364 kts 60°
2026-04-24 21:40 50.15170 -5.74423 22171 ft 362 kts 64°
2026-04-24 21:40 50.16316 -5.70945 22176 ft 362 kts 65°
2026-04-24 21:40 50.17471 -5.67440 22176 ft 362 kts 65°
2026-04-24 21:40 50.18598 -5.63943 22178 ft 361 kts 66°
2026-04-24 21:41 50.19699 -5.60455 22185 ft 363 kts 65°
2026-04-24 21:41 50.20865 -5.56980 22182 ft 362 kts 65°
2026-04-24 21:41 50.22028 -5.53486 22183 ft 362 kts 65°
2026-04-24 21:41 50.23186 -5.50009 22182 ft 362 kts 65°
2026-04-24 21:42 50.24349 -5.46509 22183 ft 361 kts 65°
2026-04-24 21:42 50.25505 -5.43030 22185 ft 363 kts 65°
2026-04-24 21:42 50.26667 -5.39526 22184 ft 360 kts 65°
2026-04-24 21:42 50.27821 -5.36043 22184 ft 363 kts 65°
2026-04-24 21:43 50.28976 -5.32542 22181 ft 360 kts 66°
2026-04-24 21:43 50.30117 -5.29041 22184 ft 363 kts 66°
2026-04-24 21:43 50.31256 -5.25536 22200 ft 360 kts 66°
2026-04-24 21:43 50.32396 -5.22033 22204 ft 363 kts 66°
2026-04-24 21:44 50.33529 -5.18580 22204 ft 360 kts 65°
2026-04-24 21:44 50.34682 -5.15087 22206 ft 364 kts 65°
2026-04-24 21:44 50.35844 -5.11592 22210 ft 360 kts 65°
2026-04-24 21:44 50.37006 -5.08092 22211 ft 364 kts 65°
2026-04-24 21:45 50.38164 -5.04596 22209 ft 360 kts 65°
2026-04-24 21:45 50.39316 -5.01089 22216 ft 363 kts 65°
2026-04-24 21:45 50.40458 -4.97587 22211 ft 360 kts 66°
2026-04-24 21:45 50.41599 -4.94063 22209 ft 363 kts 66°
2026-04-24 21:46 50.42732 -4.90556 22210 ft 360 kts 66°
2026-04-24 21:46 50.43872 -4.87026 22211 ft 363 kts 65°
2026-04-24 21:46 50.45011 -4.83516 22210 ft 361 kts 65°
2026-04-24 21:46 50.46157 -4.79990 22203 ft 363 kts 65°
2026-04-24 21:47 50.47302 -4.76480 22201 ft 362 kts 65°
2026-04-24 21:47 50.48454 -4.72939 22206 ft 363 kts 65°
2026-04-24 21:47 50.49597 -4.69423 22213 ft 362 kts 65°
2026-04-24 21:47 50.50741 -4.65882 22201 ft 362 kts 65°
2026-04-24 21:48 50.51875 -4.62361 22207 ft 363 kts 65°
2026-04-24 21:48 50.53012 -4.58813 22199 ft 361 kts 65°
2026-04-24 21:48 50.54140 -4.55284 22211 ft 364 kts 65°
2026-04-24 21:48 50.55274 -4.51740 22202 ft 360 kts 65°
2026-04-24 21:49 50.56389 -4.48252 22213 ft 364 kts 65°
2026-04-24 21:49 50.57525 -4.44710 22210 ft 360 kts 65°
2026-04-24 21:49 50.58658 -4.41173 22206 ft 364 kts 65°
2026-04-24 21:49 50.59793 -4.37633 22210 ft 360 kts 65°
2026-04-24 21:50 50.60924 -4.34089 22213 ft 364 kts 65°
2026-04-24 21:50 50.62054 -4.30540 22208 ft 360 kts 65°
2026-04-24 21:50 50.63180 -4.26989 22214 ft 364 kts 65°
2026-04-24 21:50 50.64304 -4.23444 22211 ft 360 kts 65°
2026-04-24 21:51 50.65427 -4.19883 22213 ft 364 kts 65°
2026-04-24 21:51 50.66548 -4.16338 22217 ft 361 kts 65°
2026-04-24 21:51 50.67673 -4.12774 22222 ft 364 kts 65°
2026-04-24 21:51 50.68793 -4.09229 22224 ft 361 kts 65°
2026-04-24 21:52 50.69917 -4.05662 22220 ft 363 kts 65°
2026-04-24 21:52 50.71036 -4.02115 22219 ft 362 kts 65°
2026-04-24 21:52 50.72160 -3.98538 22220 ft 362 kts 65°
2026-04-24 21:52 50.73275 -3.94985 22225 ft 363 kts 65°
2026-04-24 21:53 50.74393 -3.91408 22222 ft 362 kts 65°
2026-04-24 21:53 50.75506 -3.87847 22226 ft 364 kts 65°
2026-04-24 21:53 50.76624 -3.84261 22228 ft 362 kts 65°
2026-04-24 21:53 50.77722 -3.80740 22233 ft 365 kts 65°
2026-04-24 21:54 50.78836 -3.77158 22235 ft 361 kts 65°
2026-04-24 21:54 50.79950 -3.73577 22235 ft 365 kts 65°
2026-04-24 21:54 50.81064 -3.69994 22236 ft 361 kts 65°
2026-04-24 21:54 50.82177 -3.66406 22241 ft 365 kts 65°
2026-04-24 21:55 50.83288 -3.62819 22240 ft 362 kts 65°
2026-04-24 21:55 50.84399 -3.59221 22237 ft 365 kts 65°
2026-04-24 21:55 50.85506 -3.55635 22236 ft 362 kts 65°
2026-04-24 21:55 50.86614 -3.52034 22237 ft 365 kts 65°
2026-04-24 21:56 50.87718 -3.48449 22239 ft 362 kts 65°
2026-04-24 21:56 50.88825 -3.44839 22236 ft 365 kts 65°
2026-04-24 21:56 50.89930 -3.41243 22232 ft 363 kts 65°
2026-04-24 21:56 50.91036 -3.37629 22233 ft 364 kts 65°
2026-04-24 21:57 50.92138 -3.34033 22234 ft 363 kts 65°
2026-04-24 21:57 50.93243 -3.30414 22232 ft 363 kts 65°
2026-04-24 21:57 50.94342 -3.26813 22236 ft 364 kts 65°
2026-04-24 21:57 50.95446 -3.23185 22229 ft 363 kts 64°
2026-04-24 21:58 50.96540 -3.19588 22232 ft 364 kts 64°
2026-04-24 21:58 50.97640 -3.15962 22228 ft 363 kts 64°
2026-04-24 21:58 50.98735 -3.12353 22230 ft 365 kts 64°
2026-04-24 21:58 50.99819 -3.08772 22230 ft 362 kts 64°
2026-04-24 21:59 51.00910 -3.05160 22228 ft 365 kts 64°
2026-04-24 21:59 51.02169 -3.01693 22200 ft 362 kts 50°
2026-04-24 21:59 51.04168 -2.99313 22224 ft 362 kts 21°
2026-04-24 21:59 51.06600 -2.98641 22239 ft 353 kts 353°
2026-04-24 22:00 51.08908 -2.99788 22266 ft 349 kts 326°
2026-04-24 22:00 51.10597 -3.02438 22284 ft 338 kts 299°
2026-04-24 22:00 51.11681 -3.05775 22279 ft 341 kts 288°
2026-04-24 22:00 51.12267 -3.09383 22269 ft 334 kts 271°
2026-04-24 22:01 51.12075 -3.13064 22272 ft 337 kts 257°
2026-04-24 22:01 51.11491 -3.16644 22258 ft 331 kts 248°
2026-04-24 22:01 51.10591 -3.20040 22236 ft 336 kts 245°
2026-04-24 22:01 51.09694 -3.23453 22226 ft 331 kts 245°
2026-04-24 22:02 51.08780 -3.26841 22210 ft 336 kts 244°
2026-04-24 22:02 51.07852 -3.30217 22220 ft 331 kts 244°
2026-04-24 22:02 51.06900 -3.33585 22213 ft 335 kts 243°
2026-04-24 22:02 51.05955 -3.36937 22212 ft 332 kts 244°
2026-04-24 22:03 51.04999 -3.40312 22215 ft 334 kts 244°
2026-04-24 22:03 51.04051 -3.43658 22226 ft 333 kts 244°
2026-04-24 22:03 51.03093 -3.47020 22222 ft 333 kts 244°
2026-04-24 22:03 51.02142 -3.50359 22229 ft 333 kts 243°
2026-04-24 22:04 51.01177 -3.53719 22227 ft 336 kts 245°
2026-04-24 22:04 51.00220 -3.57070 22223 ft 328 kts 244°
2026-04-24 22:04 50.99269 -3.60402 22227 ft 337 kts 244°
2026-04-24 22:04 50.98321 -3.63751 22225 ft 330 kts 244°
2026-04-24 22:05 50.97368 -3.67108 22230 ft 334 kts 244°
2026-04-24 22:05 50.96417 -3.70442 22231 ft 332 kts 243°
2026-04-24 22:05 50.95451 -3.73791 22226 ft 333 kts 243°
2026-04-24 22:05 50.94485 -3.77115 22228 ft 334 kts 243°
2026-04-24 22:06 50.93504 -3.80453 22230 ft 332 kts 243°
2026-04-24 22:06 50.92526 -3.83779 22228 ft 335 kts 243°
2026-04-24 22:06 50.91545 -3.87122 22229 ft 331 kts 243°
2026-04-24 22:06 50.90570 -3.90460 22231 ft 336 kts 243°
2026-04-24 22:07 50.89600 -3.93797 22223 ft 332 kts 243°
2026-04-24 22:07 50.88627 -3.97149 22221 ft 336 kts 243°
2026-04-24 22:07 50.87661 -4.00487 22219 ft 333 kts 243°
2026-04-24 22:07 50.86697 -4.03794 22214 ft 336 kts 243°
2026-04-24 22:08 50.85711 -4.07166 22224 ft 334 kts 243°
2026-04-24 22:08 50.84722 -4.10516 22224 ft 335 kts 243°
2026-04-24 22:08 50.83752 -4.13803 22220 ft 335 kts 243°
2026-04-24 22:08 50.82760 -4.17149 22221 ft 335 kts 243°
2026-04-24 22:09 50.81774 -4.20475 22220 ft 336 kts 243°
2026-04-24 22:09 50.80781 -4.23832 22216 ft 335 kts 243°
2026-04-24 22:09 50.79796 -4.27163 22216 ft 337 kts 243°
2026-04-24 22:09 50.78807 -4.30517 22208 ft 334 kts 243°
2026-04-24 22:10 50.77822 -4.33852 22215 ft 338 kts 243°
2026-04-24 22:10 50.76831 -4.37201 22214 ft 334 kts 243°
2026-04-24 22:10 50.75836 -4.40544 22216 ft 338 kts 242°
2026-04-24 22:10 50.74842 -4.43882 22215 ft 334 kts 242°
2026-04-24 22:11 50.73841 -4.47224 22212 ft 338 kts 242°
2026-04-24 22:11 50.72842 -4.50559 22212 ft 335 kts 242°
2026-04-24 22:11 50.71839 -4.53904 22206 ft 338 kts 242°
2026-04-24 22:11 50.70842 -4.57235 22210 ft 335 kts 242°
2026-04-24 22:12 50.69838 -4.60581 22206 ft 338 kts 242°
2026-04-24 22:12 50.68840 -4.63911 22206 ft 336 kts 242°
2026-04-24 22:12 50.67835 -4.67258 22197 ft 337 kts 242°
2026-04-24 22:12 50.66836 -4.70585 22204 ft 337 kts 242°
2026-04-24 22:13 50.65825 -4.73932 22204 ft 337 kts 242°
2026-04-24 22:13 50.64821 -4.77259 22207 ft 337 kts 242°
2026-04-24 22:13 50.63809 -4.80598 22191 ft 337 kts 242°
2026-04-24 22:13 50.62803 -4.83919 22206 ft 338 kts 242°
2026-04-24 22:14 50.61787 -4.87260 22195 ft 336 kts 242°
2026-04-24 22:14 50.60779 -4.90582 22208 ft 339 kts 242°
2026-04-24 22:14 50.59763 -4.93920 22210 ft 336 kts 242°
2026-04-24 22:14 50.58751 -4.97248 22209 ft 340 kts 242°
2026-04-24 22:15 50.57737 -5.00579 22210 ft 335 kts 242°
2026-04-24 22:15 50.56718 -5.03915 22204 ft 340 kts 241°
2026-04-24 22:15 50.55703 -5.07242 22202 ft 336 kts 241°
2026-04-24 22:15 50.54679 -5.10578 22206 ft 339 kts 241°
2026-04-24 22:16 50.53663 -5.13895 22213 ft 338 kts 241°
2026-04-24 22:16 50.52634 -5.17237 22205 ft 338 kts 241°
2026-04-24 22:16 50.51616 -5.20552 22207 ft 339 kts 241°
2026-04-24 22:16 50.50586 -5.23895 22202 ft 337 kts 241°
2026-04-24 22:17 50.49565 -5.27207 22205 ft 340 kts 241°
2026-04-24 22:17 50.48535 -5.30545 22199 ft 336 kts 241°
2026-04-24 22:17 50.47508 -5.33872 22202 ft 341 kts 241°
2026-04-24 22:17 50.46492 -5.37158 22196 ft 337 kts 241°
2026-04-24 22:18 50.45457 -5.40493 22199 ft 341 kts 241°
2026-04-24 22:18 50.44426 -5.43818 22196 ft 338 kts 241°
2026-04-24 22:18 50.43388 -5.47151 22193 ft 340 kts 240°
2026-04-24 22:18 50.42357 -5.50467 22193 ft 339 kts 240°
2026-04-24 22:19 50.41314 -5.53807 22191 ft 339 kts 240°
2026-04-24 22:19 50.40280 -5.57125 22189 ft 341 kts 240°
2026-04-24 22:19 50.39239 -5.60456 22185 ft 338 kts 240°
2026-04-24 22:19 50.38201 -5.63775 22187 ft 341 kts 240°
2026-04-24 22:20 50.37159 -5.67101 22183 ft 338 kts 240°
2026-04-24 22:20 50.36117 -5.70422 22188 ft 342 kts 240°
2026-04-24 22:20 50.35076 -5.73739 22181 ft 337 kts 240°
2026-04-24 22:20 50.34030 -5.77058 22184 ft 341 kts 240°
2026-04-24 22:21 50.32990 -5.80365 22180 ft 338 kts 240°
2026-04-24 22:21 50.31941 -5.83684 22177 ft 340 kts 240°
2026-04-24 22:21 50.30901 -5.86982 22182 ft 339 kts 240°
2026-04-24 22:21 50.29849 -5.90302 22180 ft 338 kts 240°
2026-04-24 22:22 50.28798 -5.93581 22179 ft 338 kts 238°
2026-04-24 22:22 50.27266 -5.96294 22160 ft 331 kts 212°
2026-04-24 22:22 50.25132 -5.97417 22172 ft 328 kts 182°
2026-04-24 22:22 50.22910 -5.96708 22210 ft 327 kts 157°
2026-04-24 22:23 50.21543 -5.95710 22198 ft 329 kts 154°
2026-04-24 22:23 50.19439 -5.94227 22181 ft 329 kts 156°
2026-04-24 22:23 50.17350 -5.92782 22180 ft 331 kts 156°
2026-04-24 22:23 50.15244 -5.91331 22171 ft 327 kts 156°
2026-04-24 22:24 50.13145 -5.89899 22175 ft 332 kts 157°
2026-04-24 22:24 50.11038 -5.88473 22176 ft 327 kts 157°
2026-04-24 22:24 50.08932 -5.87052 22172 ft 332 kts 158°
2026-04-24 22:24 50.06834 -5.85631 22178 ft 328 kts 156°
2026-04-24 22:25 50.04747 -5.84131 22178 ft 331 kts 156°
2026-04-24 22:25 50.02694 -5.82661 22175 ft 329 kts 156°
2026-04-24 22:25 50.00656 -5.81005 22166 ft 333 kts 145°
2026-04-24 22:25 49.99095 -5.78358 22188 ft 336 kts 127°
2026-04-24 22:26 49.98010 -5.75100 22187 ft 340 kts 114°
2026-04-24 22:26 49.97280 -5.71618 22183 ft 346 kts 100°
2026-04-24 22:26 49.97355 -5.67858 22204 ft 350 kts 82°
2026-04-24 22:26 49.98115 -5.64232 22208 ft 357 kts 69°
2026-04-24 22:27 49.99208 -5.60756 22202 ft 355 kts 62°
2026-04-24 22:27 50.00395 -5.57368 22179 ft 360 kts 63°
2026-04-24 22:27 50.01581 -5.53985 22170 ft 355 kts 63°
2026-04-24 22:27 50.02784 -5.50601 22179 ft 359 kts 62°
2026-04-24 22:28 50.03993 -5.47241 22176 ft 356 kts 62°
2026-04-24 22:28 50.05210 -5.43869 22169 ft 356 kts 62°
2026-04-24 22:28 50.06425 -5.40521 22179 ft 357 kts 62°
2026-04-24 22:28 50.07650 -5.37154 22176 ft 355 kts 62°
2026-04-24 22:29 50.10094 -5.30452 22178 ft 354 kts 62°
2026-04-24 22:29 50.11317 -5.27099 22182 ft 358 kts 62°
2026-04-24 22:29 50.12537 -5.23753 22181 ft 353 kts 62°
2026-04-24 22:30 50.13759 -5.20399 22182 ft 357 kts 63°
2026-04-24 22:30 50.14977 -5.17062 22184 ft 353 kts 63°
2026-04-24 22:30 50.16199 -5.13705 22187 ft 356 kts 63°
2026-04-24 22:30 50.17413 -5.10372 22182 ft 354 kts 63°
2026-04-24 22:31 50.18634 -5.07012 22183 ft 354 kts 63°
2026-04-24 22:31 50.19842 -5.03681 22184 ft 355 kts 63°
2026-04-24 22:31 50.21061 -5.00322 22188 ft 353 kts 63°
2026-04-24 22:31 50.22268 -4.96976 22200 ft 356 kts 63°
2026-04-24 22:32 50.23470 -4.93606 22198 ft 352 kts 63°
2026-04-24 22:32 50.24668 -4.90244 22203 ft 357 kts 63°
2026-04-24 22:32 50.25869 -4.86882 22202 ft 353 kts 63°
2026-04-24 22:32 50.27078 -4.83514 22207 ft 356 kts 63°
2026-04-24 22:33 50.28295 -4.80155 22201 ft 354 kts 62°
2026-04-24 22:33 50.29516 -4.76793 22202 ft 355 kts 62°
2026-04-24 22:33 50.30717 -4.73490 22203 ft 355 kts 62°
2026-04-24 22:33 50.31935 -4.70121 22202 ft 354 kts 62°
2026-04-24 22:34 50.33133 -4.66770 22201 ft 355 kts 62°
2026-04-24 22:34 50.34409 -4.63453 22200 ft 353 kts 60°
2026-04-24 22:34 50.35680 -4.60162 22203 ft 356 kts 60°
2026-04-24 22:34 50.36962 -4.56858 22201 ft 352 kts 60°
2026-04-24 22:35 50.38239 -4.53567 22205 ft 356 kts 60°
2026-04-24 22:35 50.39516 -4.50281 22205 ft 351 kts 60°
2026-04-24 22:35 50.40801 -4.46983 22205 ft 355 kts 59°
2026-04-24 22:35 50.42075 -4.43711 22208 ft 352 kts 59°
2026-04-24 22:36 50.43356 -4.40411 22206 ft 352 kts 59°
2026-04-24 22:36 50.44617 -4.37134 22208 ft 353 kts 59°
2026-04-24 22:36 50.45885 -4.33832 22206 ft 352 kts 59°
2026-04-24 22:36 50.47146 -4.30553 22209 ft 353 kts 59°
2026-04-24 22:37 50.48424 -4.27256 22207 ft 350 kts 59°
2026-04-24 22:37 50.49697 -4.23992 22209 ft 353 kts 59°
2026-04-24 22:37 50.50980 -4.20718 22211 ft 349 kts 59°
2026-04-24 22:37 50.52261 -4.17450 22212 ft 353 kts 59°
2026-04-24 22:38 50.53537 -4.14179 22210 ft 349 kts 59°
2026-04-24 22:38 50.54806 -4.10903 22217 ft 352 kts 59°
2026-04-24 22:38 50.56062 -4.07638 22218 ft 349 kts 59°
2026-04-24 22:38 50.57322 -4.04344 22220 ft 350 kts 59°
2026-04-24 22:39 50.58570 -4.01077 22218 ft 350 kts 59°
2026-04-24 22:39 50.59827 -3.97787 22219 ft 348 kts 59°
2026-04-24 22:39 50.61079 -3.94526 22222 ft 351 kts 58°
2026-04-24 22:39 50.62323 -3.91291 22222 ft 347 kts 58°
2026-04-24 22:40 50.63583 -3.88020 22227 ft 351 kts 58°
2026-04-24 22:40 50.64837 -3.84757 22225 ft 347 kts 58°
2026-04-24 22:40 50.66098 -3.81473 22231 ft 350 kts 58°
2026-04-24 22:40 50.67342 -3.78214 22235 ft 348 kts 58°
2026-04-24 22:41 50.68592 -3.74928 22234 ft 347 kts 58°
2026-04-24 22:41 50.69828 -3.71665 22234 ft 349 kts 58°
2026-04-24 22:41 50.71072 -3.68385 22237 ft 346 kts 58°
2026-04-24 22:41 50.72310 -3.65115 22240 ft 350 kts 58°
2026-04-24 22:42 50.73553 -3.61837 22241 ft 345 kts 58°
2026-04-24 22:42 50.74795 -3.58566 22241 ft 349 kts 58°
2026-04-24 22:42 50.76031 -3.55303 22239 ft 345 kts 58°
2026-04-24 22:42 50.77272 -3.52027 22241 ft 348 kts 58°
2026-04-24 22:43 50.78503 -3.48766 22238 ft 345 kts 58°
2026-04-24 22:43 50.79745 -3.45498 22237 ft 347 kts 58°
2026-04-24 22:43 50.80946 -3.42222 22241 ft 345 kts 58°
2026-04-24 22:43 50.82161 -3.38929 22240 ft 345 kts 58°
2026-04-24 22:44 50.83361 -3.35660 22238 ft 345 kts 58°
2026-04-24 22:44 50.84548 -3.32405 22235 ft 343 kts 59°
2026-04-24 22:44 50.85730 -3.29126 22237 ft 346 kts 59°
2026-04-24 22:44 50.86914 -3.25824 22235 ft 342 kts 59°
2026-04-24 22:45 50.88090 -3.22529 22237 ft 346 kts 59°
2026-04-24 22:45 50.89265 -3.19240 22236 ft 341 kts 59°
2026-04-24 22:45 50.90446 -3.15947 22237 ft 344 kts 59°
2026-04-24 22:45 50.91625 -3.12674 22233 ft 343 kts 59°
2026-04-24 22:46 50.92816 -3.09380 22232 ft 342 kts 59°
2026-04-24 22:46 50.93994 -3.06115 22231 ft 343 kts 59°
2026-04-24 22:46 50.95178 -3.02829 22238 ft 340 kts 59°
2026-04-24 22:46 50.96353 -2.99551 22236 ft 345 kts 59°
2026-04-24 22:47 50.97532 -2.96265 22232 ft 339 kts 58°
2026-04-24 22:47 50.99003 -2.93322 22229 ft 343 kts 45°
2026-04-24 22:47 51.00762 -2.90820 22236 ft 339 kts 38°
2026-04-24 22:47 51.02657 -2.88539 22239 ft 340 kts 34°
2026-04-24 22:48 51.04663 -2.86593 22239 ft 341 kts 30°
2026-04-24 22:48 51.06691 -2.84642 22238 ft 337 kts 30°
2026-04-24 22:48 51.08720 -2.82717 22238 ft 342 kts 30°
2026-04-24 22:48 51.10750 -2.80816 22235 ft 338 kts 30°
2026-04-24 22:49 51.12798 -2.78916 22235 ft 340 kts 30°
2026-04-24 22:49 51.14833 -2.77041 22237 ft 339 kts 30°
2026-04-24 22:49 51.16882 -2.75160 22234 ft 337 kts 30°
2026-04-24 22:49 51.18923 -2.73294 22144 ft 342 kts 30°
2026-04-24 22:50 51.20935 -2.71461 21353 ft 330 kts 30°
2026-04-24 22:50 51.22976 -2.69606 20579 ft 330 kts 31°
2026-04-24 22:50 51.24968 -2.67793 19842 ft 331 kts 31°
2026-04-24 22:50 51.26919 -2.66017 19124 ft 327 kts 31°
2026-04-24 22:51 51.28884 -2.64208 18402 ft 322 kts 32°
2026-04-24 22:51 51.30824 -2.62413 17597 ft 320 kts 32°
2026-04-24 22:51 51.32730 -2.60655 16817 ft 315 kts 32°
2026-04-24 22:51 51.34623 -2.58918 16055 ft 310 kts 32°
2026-04-24 22:52 51.36468 -2.57244 15316 ft 308 kts 32°
2026-04-24 22:52 51.38314 -2.55578 14587 ft 301 kts 32°
2026-04-24 22:52 51.40136 -2.53938 13848 ft 300 kts 33°
2026-04-24 22:52 51.41931 -2.52314 13064 ft 293 kts 33°
2026-04-24 22:53 51.43708 -2.50698 12289 ft 292 kts 33°
2026-04-24 22:53 51.45449 -2.49103 11542 ft 287 kts 33°
2026-04-24 22:53 51.47177 -2.47504 10807 ft 284 kts 33°
2026-04-24 22:53 51.48880 -2.45931 10090 ft 282 kts 33°
2026-04-24 22:54 51.50572 -2.44363 9283 ft 278 kts 33°
2026-04-24 22:54 51.52235 -2.42835 8514 ft 275 kts 33°
2026-04-24 22:54 51.53894 -2.41310 7764 ft 272 kts 33°
2026-04-24 22:54 51.55530 -2.39814 7029 ft 271 kts 33°
2026-04-24 22:55 51.57152 -2.38331 6291 ft 265 kts 33°
2026-04-24 22:55 51.58740 -2.36876 5655 ft 266 kts 33°
2026-04-24 22:55 51.60310 -2.35328 5062 ft 259 kts 39°
2026-04-24 22:55 51.61682 -2.33402 4878 ft 259 kts 48°
2026-04-24 22:56 51.62869 -2.31208 4794 ft 258 kts 57°
2026-04-24 22:56 51.63856 -2.28789 4765 ft 257 kts 60°
2026-04-24 22:56 51.64845 -2.26368 4694 ft 258 kts 60°
2026-04-24 22:56 51.65814 -2.23929 4589 ft 258 kts 61°
2026-04-24 22:57 51.66551 -2.21320 4309 ft 250 kts 76°
2026-04-24 22:57 51.66951 -2.18569 4139 ft 248 kts 82°
2026-04-24 22:57 51.67176 -2.15894 4004 ft 243 kts 88°
2026-04-24 22:57 51.67320 -2.13218 3906 ft 241 kts 88°
2026-04-24 22:58 51.67450 -2.10546 3756 ft 242 kts 88°
2026-04-24 22:58 51.67553 -2.07898 3343 ft 235 kts 90°
2026-04-24 22:58 51.67623 -2.05266 3156 ft 236 kts 91°
2026-04-24 22:58 51.67658 -2.02638 3088 ft 237 kts 92°
2026-04-24 22:59 51.67693 -2.00051 3010 ft 221 kts 88°
2026-04-24 22:59 51.67844 -1.97697 2886 ft 204 kts 86°
2026-04-24 22:59 51.68066 -1.93253 2039 ft 193 kts 88°
2026-04-24 23:00 51.68092 -1.91272 1623 ft 164 kts 90°
2026-04-24 23:00 51.68131 -1.89518 1188 ft 157 kts 88°
2026-04-24 23:00 51.68180 -1.87771 910 ft 157 kts 88°
2026-04-24 23:00 51.68207 -1.85879 824 ft 181 kts 88°
2026-04-24 23:01 51.68255 -1.83846 604 ft 174 kts 87°
2026-04-24 23:01 51.68294 -1.81920 407 ft 173 kts 88°
2026-04-24 23:01 51.68333 -1.80080 291 ft 150 kts 88°
2026-04-24 23:01 51.68359 -1.78780 282 ft 75 kts 88°
2026-04-24 23:02 51.68372 -1.78064 279 ft 54 kts 88°
2026-04-24 23:02 51.68388 -1.77452 274 ft 55 kts 87°
2026-04-24 23:02 51.68396 -1.77002 270 ft 17 kts 95°
2026-04-24 23:02 51.68335 -1.76880 270 ft 12 kts 182°
2026-04-24 23:03 51.68261 -1.76935 270 ft 13 kts 212°
2026-04-24 23:03 51.68182 -1.77013 271 ft 13 kts 211°
2026-04-24 23:03 51.68113 -1.77095 272 ft 11 kts 238°
2026-04-24 23:03 51.68100 -1.77284 273 ft 24 kts 269°
2026-04-24 23:04 51.68095 -1.77551 274 ft 24 kts 268°
2026-04-24 23:04 51.68089 -1.77817 276 ft 24 kts 268°
2026-04-24 23:04 51.68083 -1.78080 278 ft 23 kts 268°
2026-04-24 23:04 51.68078 -1.78341 280 ft 23 kts 268°
2026-04-24 23:05 51.68065 -1.78508 285 ft 10 kts 235°
2026-04-24 23:05 51.68017 -1.78571 282 ft 9 kts 219°
2026-04-24 23:05 51.68001 -1.78614 282 ft 0 kts 268°